Time;durP1;ratioP1;P1;durP2;ratioP2;P2;SDS_P1;SDS_P2;PMS_P1;PMS_P2;Temp;Humidity;BMP_temperature;BMP_pressure;BME280_temperature;BME280_humidity;BME280_pressure;Samples;Min_cycle;Max_cycle;Signal;HPM_P1;HPM_P2
2021/06/08 00:01:14;;;;;;;8.95;5.50;;;14.50;99.90;;;;;;4927314;29;20059;-75
2021/06/08 00:03:39;;;;;;;14.18;5.05;;;14.50;99.90;;;;;;4942814;29;20031;-73
2021/06/08 00:06:05;;;;;;;8.50;4.55;;;14.50;99.90;;;;;;4928096;29;20117;-74
2021/06/08 00:08:31;;;;;;;11.30;5.30;;;14.50;99.90;;;;;;4942756;29;20036;-73
2021/06/08 00:10:56;;;;;;;10.63;4.97;;;14.50;99.90;;;;;;4928124;29;20043;-74
2021/06/08 00:13:22;;;;;;;25.27;6.88;;;14.50;99.90;;;;;;4943066;29;20046;-73
2021/06/08 00:15:48;;;;;;;18.85;5.82;;;14.50;99.90;;;;;;4942695;29;20024;-73
2021/06/08 00:18:13;;;;;;;12.52;6.78;;;14.40;99.90;;;;;;4943027;29;20032;-74
2021/06/08 00:20:39;;;;;;;8.45;4.68;;;14.40;99.90;;;;;;4928010;29;20032;-73
2021/06/08 00:23:05;;;;;;;11.02;5.53;;;14.40;99.90;;;;;;4927817;29;20032;-73
2021/06/08 00:25:31;;;;;;;12.38;5.55;;;14.40;99.90;;;;;;4928351;29;20033;-74
2021/06/08 00:27:57;;;;;;;12.07;6.55;;;14.40;99.90;;;;;;4927874;29;20038;-73
2021/06/08 00:30:23;;;;;;;11.90;6.30;;;14.40;99.90;;;;;;4926355;29;20032;-74
2021/06/08 00:32:49;;;;;;;10.30;5.30;;;14.40;99.90;;;;;;4926502;29;20337;-73
2021/06/08 00:35:15;;;;;;;15.90;6.40;;;14.50;99.90;;;;;;4925675;29;20043;-73
2021/06/08 00:37:40;;;;;;;14.68;5.93;;;14.50;99.90;;;;;;4926159;29;20056;-73
2021/06/08 00:40:06;;;;;;;16.42;6.50;;;14.40;99.90;;;;;;4926604;29;20035;-74
2021/06/08 00:42:35;;;;;;;14.13;5.70;;;14.50;99.90;;;;;;4926339;29;20044;-73
2021/06/08 00:45:02;;;;;;;11.93;4.93;;;14.50;99.90;;;;;;4926228;29;20043;-73
2021/06/08 00:47:28;;;;;;;10.48;5.82;;;14.50;99.90;;;;;;4927085;29;20079;-74
2021/06/08 00:49:53;;;;;;;17.35;6.07;;;14.50;99.90;;;;;;4926202;29;20039;-73
2021/06/08 00:52:19;;;;;;;15.27;5.70;;;14.60;99.90;;;;;;4927825;29;20040;-73
2021/06/08 00:54:45;;;;;;;12.85;6.00;;;14.50;99.90;;;;;;4942418;29;20035;-73
2021/06/08 00:57:11;;;;;;;10.85;5.82;;;14.50;99.90;;;;;;4926839;29;20036;-74
2021/06/08 00:59:36;;;;;;;15.82;6.47;;;14.50;99.90;;;;;;4924804;29;20028;-73
2021/06/08 01:02:03;;;;;;;11.68;6.47;;;14.50;99.90;;;;;;4925400;29;20032;-74
2021/06/08 01:04:29;;;;;;;13.40;6.70;;;14.50;99.90;;;;;;4926508;29;20024;-74
2021/06/08 01:06:55;;;;;;;9.98;5.78;;;14.40;99.90;;;;;;4941343;29;20105;-73
2021/06/08 01:09:21;;;;;;;11.57;5.90;;;14.50;99.90;;;;;;4927543;29;20039;-73
2021/06/08 01:11:46;;;;;;;15.40;6.22;;;14.50;99.90;;;;;;4927207;29;20052;-73
2021/06/08 01:14:12;;;;;;;10.13;6.18;;;14.50;99.90;;;;;;4931487;29;20039;-74
2021/06/08 01:16:39;;;;;;;12.20;5.97;;;14.50;99.90;;;;;;4931514;29;20028;-73
2021/06/08 01:19:05;;;;;;;14.02;5.75;;;14.50;99.90;;;;;;4931572;29;20040;-73
2021/06/08 01:21:31;;;;;;;11.40;5.60;;;14.50;99.90;;;;;;4931696;29;20056;-74
2021/06/08 01:23:57;;;;;;;13.52;5.95;;;14.60;99.90;;;;;;4929855;29;20123;-75
2021/06/08 01:26:24;;;;;;;10.82;5.75;;;14.60;99.90;;;;;;4931066;29;20477;-74
2021/06/08 01:28:51;;;;;;;13.23;6.05;;;14.60;99.90;;;;;;4930690;29;20036;-74
2021/06/08 01:31:21;;;;;;;17.38;5.82;;;14.60;99.90;;;;;;4931002;29;20047;-74
2021/06/08 01:33:46;;;;;;;11.77;6.38;;;14.60;99.90;;;;;;4930086;29;20051;-73
2021/06/08 01:36:20;;;;;;;9.85;5.07;;;14.60;99.90;;;;;;4931289;29;20037;-73
2021/06/08 01:38:49;;;;;;;10.60;6.00;;;14.60;99.90;;;;;;4931100;29;20047;-74
2021/06/08 01:41:22;;;;;;;13.40;5.82;;;14.50;99.90;;;;;;4931367;29;20481;-73
2021/06/08 01:43:49;;;;;;;15.77;5.10;;;14.50;99.90;;;;;;4931312;29;20032;-74
2021/06/08 01:46:18;;;;;;;16.98;6.85;;;14.60;99.90;;;;;;4931098;29;20032;-73
2021/06/08 01:48:45;;;;;;;12.25;6.20;;;14.50;99.90;;;;;;4929980;29;20062;-74
2021/06/08 01:51:22;;;;;;;12.52;5.95;;;14.50;99.90;;;;;;4931304;29;20024;-74
2021/06/08 01:54:20;;;;;;;12.25;5.93;;;14.50;99.90;;;;;;4945480;29;20116;-73
2021/06/08 01:56:55;;;;;;;8.35;5.72;;;14.50;99.90;;;;;;4930971;29;20044;-73
2021/06/08 01:59:33;;;;;;;13.50;6.57;;;14.50;99.90;;;;;;4930693;29;20469;-73
2021/06/08 02:02:36;;;;;;;13.13;6.50;;;14.40;99.90;;;;;;4931087;29;20052;-73
2021/06/08 02:05:31;;;;;;;14.32;7.03;;;14.50;99.90;;;;;;4925777;29;20043;-75
2021/06/08 02:07:56;;;;;;;;;;;14.50;99.90;;;;;;4930853;29;20032;-75
2021/06/08 02:10:37;;;;;;;14.05;6.55;;;14.50;99.90;;;;;;4930455;29;19970;-72
2021/06/08 02:13:30;;;;;;;14.23;6.50;;;14.50;99.90;;;;;;4930643;29;20044;-74
2021/06/08 02:16:11;;;;;;;13.15;6.65;;;14.50;99.90;;;;;;4930657;29;20114;-75
2021/06/08 02:18:39;;;;;;;16.73;6.75;;;14.50;99.90;;;;;;4945212;29;20118;-74
2021/06/08 02:21:07;;;;;;;13.25;7.47;;;14.40;99.90;;;;;;4930220;29;20041;-75
2021/06/08 02:23:35;;;;;;;17.05;8.23;;;14.40;99.90;;;;;;4930431;29;20028;-73
2021/06/08 02:26:02;;;;;;;20.17;8.50;;;14.40;99.90;;;;;;4929211;29;20032;-74
2021/06/08 02:28:38;;;;;;;14.85;6.50;;;14.50;99.90;;;;;;4930175;29;20396;-73
2021/06/08 02:31:07;;;;;;;12.52;6.43;;;14.40;99.90;;;;;;4929204;29;20089;-73
2021/06/08 02:33:35;;;;;;;15.70;7.95;;;14.50;99.90;;;;;;4929848;29;20179;-74
2021/06/08 02:36:03;;;;;;;10.30;5.80;;;14.50;99.90;;;;;;4930642;29;20028;-74
2021/06/08 02:38:33;;;;;;;12.00;6.55;;;14.40;99.90;;;;;;4928845;29;20036;-74
2021/06/08 02:41:01;;;;;;;13.20;6.68;;;14.50;99.90;;;;;;4930143;29;20032;-74
2021/06/08 02:43:27;;;;;;;17.48;6.95;;;14.40;99.90;;;;;;4929115;29;20024;-74
2021/06/08 02:45:54;;;;;;;12.63;7.22;;;14.40;99.90;;;;;;4929528;29;20032;-73
2021/06/08 02:48:21;;;;;;;12.93;7.70;;;14.40;99.90;;;;;;4929801;29;20064;-73
2021/06/08 02:50:48;;;;;;;20.30;8.30;;;14.40;99.90;;;;;;4928428;29;20488;-74
2021/06/08 02:53:16;;;;;;;12.80;6.95;;;14.40;99.90;;;;;;4929844;29;20040;-73
2021/06/08 02:55:42;;;;;;;16.48;8.07;;;14.30;99.90;;;;;;4929732;29;20028;-73
2021/06/08 02:58:09;;;;;;;13.15;7.18;;;14.40;99.90;;;;;;4929941;29;20024;-74
2021/06/08 03:00:35;;;;;;;18.08;7.50;;;14.40;99.90;;;;;;4929384;29;20100;-74
2021/06/08 03:03:04;;;;;;;18.83;8.50;;;14.40;99.90;;;;;;4929813;29;20037;-75
2021/06/08 03:05:34;;;;;;;14.32;6.72;;;14.40;99.90;;;;;;4929933;29;20024;-74
2021/06/08 03:08:03;;;;;;;18.42;7.82;;;14.40;99.90;;;;;;4929662;29;20047;-75
2021/06/08 03:10:32;;;;;;;18.27;7.55;;;14.40;99.90;;;;;;4929742;29;20083;-75
2021/06/08 03:13:01;;;;;;;16.23;8.13;;;14.40;99.90;;;;;;4929563;29;20080;-75
2021/06/08 03:15:49;;;;;;;12.63;7.00;;;14.40;99.90;;;;;;4929371;29;20369;-75
2021/06/08 03:18:17;;;;;;;25.05;9.75;;;14.40;99.90;;;;;;4929592;29;20080;-73
2021/06/08 03:21:14;;;;;;;12.32;7.15;;;14.40;99.90;;;;;;4929633;29;20028;-73
2021/06/08 03:23:50;;;;;;;16.65;7.55;;;14.40;99.90;;;;;;4928912;29;20043;-73
2021/06/08 03:26:16;;;;;;;14.00;7.68;;;14.40;99.90;;;;;;4929496;29;20067;-74
2021/06/08 03:28:44;;;;;;;18.10;8.05;;;14.40;99.90;;;;;;4929412;29;20056;-75
2021/06/08 03:31:12;;;;;;;15.82;8.27;;;14.40;99.90;;;;;;4928998;29;20039;-73
2021/06/08 03:33:40;;;;;;;15.57;7.93;;;14.40;99.90;;;;;;4929207;29;20044;-73
2021/06/08 03:36:08;;;;;;;16.73;7.70;;;14.40;99.90;;;;;;4928244;29;20028;-73
2021/06/08 03:38:35;;;;;;;16.50;7.65;;;14.40;99.90;;;;;;4927533;29;20055;-74
2021/06/08 03:41:02;;;;;;;14.95;7.35;;;14.40;99.90;;;;;;4929083;29;20071;-74
2021/06/08 03:43:28;;;;;;;17.23;8.32;;;14.40;99.90;;;;;;4929022;29;20075;-75
2021/06/08 03:45:54;;;;;;;18.70;8.93;;;14.40;99.90;;;;;;4929056;29;20050;-73
2021/06/08 03:48:20;;;;;;;19.85;7.65;;;14.50;99.90;;;;;;4928992;29;20043;-74
2021/06/08 03:50:49;;;;;;;17.63;7.25;;;14.50;99.90;;;;;;4928796;29;20036;-73
2021/06/08 03:53:15;;;;;;;14.30;7.85;;;14.50;99.90;;;;;;4928952;29;20040;-73
2021/06/08 03:55:41;;;;;;;13.55;6.65;;;14.50;99.90;;;;;;4928862;29;20046;-73
2021/06/08 03:58:13;;;;;;;15.95;8.32;;;14.50;99.90;;;;;;4927311;29;20039;-74
2021/06/08 04:00:39;;;;;;;16.38;8.23;;;14.50;99.90;;;;;;4942338;29;20059;-74
2021/06/08 04:03:09;;;;;;;16.25;8.07;;;14.50;99.90;;;;;;4927760;29;20104;-73
2021/06/08 04:05:36;;;;;;;16.52;7.47;;;14.60;99.90;;;;;;4928519;29;20032;-74
2021/06/08 04:08:05;;;;;;;17.75;7.65;;;14.50;99.90;;;;;;4927513;29;20379;-74
2021/06/08 04:10:31;;;;;;;15.73;7.80;;;14.50;99.90;;;;;;4928663;29;20111;-74
2021/06/08 04:13:02;;;;;;;13.60;6.72;;;14.50;99.90;;;;;;4928406;29;20066;-74
2021/06/08 04:15:29;;;;;;;21.77;8.52;;;14.50;99.90;;;;;;4926555;29;20144;-74
2021/06/08 04:17:55;;;;;;;18.33;7.40;;;14.60;99.90;;;;;;4914333;29;20058;-74
2021/06/08 04:20:21;;;;;;;14.63;7.10;;;14.60;99.90;;;;;;4908814;29;20047;-74
2021/06/08 04:22:47;;;;;;;15.77;7.15;;;14.60;99.90;;;;;;4910994;29;20032;-74
2021/06/08 04:25:17;;;;;;;11.98;6.55;;;14.60;99.90;;;;;;4928531;29;20032;-74
2021/06/08 04:27:42;;;;;;;11.38;6.00;;;14.60;99.90;;;;;;4942719;29;20035;-74
2021/06/08 04:30:10;;;;;;;11.38;5.55;;;14.60;99.90;;;;;;4927494;29;20028;-73
2021/06/08 04:32:37;;;;;;;13.23;4.75;;;14.60;99.90;;;;;;4912720;29;20119;-76
2021/06/08 04:35:05;;;;;;;10.15;5.50;;;14.60;99.90;;;;;;4927981;29;20036;-73
2021/06/08 04:37:31;;;;;;;13.13;5.78;;;14.70;99.90;;;;;;4909658;29;20048;-74
2021/06/08 04:39:57;;;;;;;12.13;6.35;;;14.70;99.90;;;;;;4909421;29;20029;-74
2021/06/08 04:42:23;;;;;;;12.63;6.72;;;14.70;99.90;;;;;;4909159;29;20489;-73
2021/06/08 04:44:51;;;;;;;14.88;5.90;;;14.80;99.90;;;;;;4909221;29;20036;-74
2021/06/08 04:47:19;;;;;;;11.02;5.75;;;14.70;99.90;;;;;;4908238;29;20096;-74
2021/06/08 04:49:45;;;;;;;20.40;6.30;;;14.80;99.90;;;;;;4908613;29;20470;-73
2021/06/08 04:52:11;;;;;;;16.08;6.47;;;14.80;99.90;;;;;;4909044;29;20128;-74
2021/06/08 04:54:37;;;;;;;19.65;5.68;;;14.80;99.90;;;;;;4908836;29;20033;-74
2021/06/08 04:57:05;;;;;;;11.43;5.45;;;14.80;99.90;;;;;;4923523;29;20029;-74
2021/06/08 04:59:49;;;;;;;12.20;6.28;;;14.70;99.90;;;;;;4914048;29;20492;-74
2021/06/08 05:02:35;;;;;;;12.75;5.40;;;14.70;99.90;;;;;;4914641;29;20040;-74
2021/06/08 05:05:06;;;;;;;8.55;5.38;;;14.70;99.90;;;;;;4926823;29;20123;-73
2021/06/08 05:07:36;;;;;;;11.82;5.90;;;14.80;99.90;;;;;;4923482;29;20032;-75
2021/06/08 05:10:04;;;;;;;17.33;5.70;;;14.80;99.90;;;;;;4907733;29;20036;-73
2021/06/08 05:12:32;;;;;;;11.50;6.18;;;14.80;99.90;;;;;;4908930;29;20045;-73
2021/06/08 05:15:00;;;;;;;8.60;4.90;;;14.80;99.90;;;;;;4908769;29;20037;-74
2021/06/08 05:17:27;;;;;;;10.65;5.63;;;14.90;99.90;;;;;;4923584;29;20172;-73
2021/06/08 05:19:54;;;;;;;18.88;7.03;;;14.90;99.90;;;;;;4909197;29;20111;-74
2021/06/08 05:22:21;;;;;;;8.82;5.05;;;14.90;99.90;;;;;;4908276;29;20057;-73
2021/06/08 05:24:51;;;;;;;13.88;5.78;;;14.90;99.90;;;;;;4908830;29;20025;-74
2021/06/08 05:27:22;;;;;;;10.25;5.57;;;14.90;99.90;;;;;;4907535;29;20037;-72
2021/06/08 05:29:57;;;;;;;15.73;5.47;;;14.90;99.90;;;;;;4908666;29;20048;-72
2021/06/08 05:32:23;;;;;;;14.10;5.20;;;14.90;99.90;;;;;;4907720;29;20049;-73
2021/06/08 05:34:49;;;;;;;11.88;5.78;;;14.80;99.90;;;;;;4908977;29;20028;-73
2021/06/08 05:37:17;;;;;;;10.45;6.20;;;14.90;99.90;;;;;;4906749;29;20032;-72
2021/06/08 05:39:44;;;;;;;15.90;5.78;;;15.00;99.90;;;;;;4908893;29;20025;-71
2021/06/08 05:42:15;;;;;;;13.95;6.07;;;15.00;99.90;;;;;;4908785;29;20037;-73
2021/06/08 05:44:41;;;;;;;9.57;4.93;;;15.00;99.90;;;;;;4908503;29;20068;-71
2021/06/08 05:47:09;;;;;;;12.60;5.95;;;15.00;99.90;;;;;;4923373;29;20033;-71
2021/06/08 05:49:38;;;;;;;10.23;5.10;;;15.20;99.90;;;;;;4908440;29;20072;-73
2021/06/08 05:52:07;;;;;;;7.35;4.38;;;15.30;99.90;;;;;;4911214;29;20157;-71
2021/06/08 05:54:34;;;;;;;11.50;5.78;;;15.30;99.90;;;;;;4918205;29;20061;-72
2021/06/08 05:57:00;;;;;;;7.10;4.65;;;15.40;99.90;;;;;;4916115;29;20032;-72
2021/06/08 05:59:27;;;;;;;9.45;5.32;;;15.40;99.90;;;;;;4943688;29;20390;-73
2021/06/08 06:01:54;;;;;;;8.98;5.47;;;15.60;99.90;;;;;;4926381;29;20158;-73
2021/06/08 06:04:23;;;;;;;9.30;5.40;;;15.60;99.90;;;;;;4912073;29;20079;-72
2021/06/08 06:06:49;;;;;;;10.77;4.90;;;15.60;99.90;;;;;;4926092;29;20029;-73
2021/06/08 06:09:17;;;;;;;10.57;5.25;;;15.60;99.90;;;;;;4911834;29;20039;-73
2021/06/08 06:11:46;;;;;;;15.52;5.20;;;15.70;99.90;;;;;;4925693;29;20032;-72
2021/06/08 06:14:13;;;;;;;16.00;5.05;;;15.70;99.90;;;;;;4926206;29;20035;-71
2021/06/08 06:16:45;;;;;;;15.10;4.68;;;15.80;99.90;;;;;;4933762;29;20041;-72
2021/06/08 06:19:11;;;;;;;11.55;4.85;;;15.90;99.90;;;;;;4929707;29;20770;-71
2021/06/08 06:21:37;;;;;;;10.60;4.75;;;15.90;99.90;;;;;;4917484;29;20180;-72
2021/06/08 06:24:04;;;;;;;9.02;4.70;;;16.00;99.90;;;;;;4926087;29;20040;-74
2021/06/08 06:26:32;;;;;;;9.98;4.95;;;16.00;99.90;;;;;;4911385;29;20453;-72
2021/06/08 06:29:00;;;;;;;9.40;4.82;;;16.00;99.90;;;;;;4913962;29;20426;-71
2021/06/08 06:31:27;;;;;;;8.73;4.90;;;16.20;99.90;;;;;;4914525;29;20028;-72
2021/06/08 06:33:57;;;;;;;9.52;4.95;;;16.30;99.90;;;;;;4929004;29;20048;-73
2021/06/08 06:36:28;;;;;;;11.07;5.40;;;16.40;99.90;;;;;;4926062;29;20048;-73
2021/06/08 06:38:58;;;;;;;12.55;5.53;;;16.40;99.90;;;;;;4911563;29;20092;-72
2021/06/08 06:41:24;;;;;;;8.25;5.13;;;16.50;99.90;;;;;;4911323;29;20043;-72
2021/06/08 06:43:53;;;;;;;9.68;5.40;;;16.50;99.90;;;;;;4911467;29;20021;-72
2021/06/08 06:46:21;;;;;;;12.40;4.47;;;16.50;99.90;;;;;;4911051;29;20024;-72
2021/06/08 06:48:50;;;;;;;9.13;4.85;;;16.60;99.90;;;;;;4910770;29;20028;-72
2021/06/08 06:51:16;;;;;;;8.43;4.50;;;16.70;99.90;;;;;;4911118;29;20056;-72
2021/06/08 06:53:42;;;;;;;17.27;5.20;;;16.80;99.90;;;;;;4925253;29;20052;-72
2021/06/08 06:56:08;;;;;;;9.57;4.38;;;16.80;99.90;;;;;;4910737;29;20020;-71
2021/06/08 06:58:34;;;;;;;9.93;4.38;;;16.90;99.90;;;;;;4911000;29;20055;-72
2021/06/08 07:01:00;;;;;;;7.65;4.63;;;17.00;99.90;;;;;;4921034;29;20048;-74
2021/06/08 07:03:32;;;;;;;6.55;4.07;;;17.00;99.90;;;;;;4918379;29;20036;-73
2021/06/08 07:05:59;;;;;;;8.10;4.38;;;17.00;99.90;;;;;;4920300;29;20024;-72
2021/06/08 07:08:26;;;;;;;7.78;4.40;;;17.00;99.90;;;;;;4933612;29;20059;-72
2021/06/08 07:10:52;;;;;;;7.95;3.90;;;17.00;99.90;;;;;;4923680;29;20032;-71
2021/06/08 07:13:19;;;;;;;5.47;3.42;;;17.10;99.90;;;;;;4929593;29;20036;-73
2021/06/08 07:15:46;;;;;;;7.68;4.60;;;17.20;99.90;;;;;;4929037;29;20083;-73
2021/06/08 07:18:12;;;;;;;6.75;4.05;;;17.20;99.90;;;;;;4943447;29;20031;-73
2021/06/08 07:20:38;;;;;;;7.03;4.25;;;17.20;99.90;;;;;;4928161;29;20107;-72
2021/06/08 07:23:05;;;;;;;9.93;4.35;;;17.30;99.90;;;;;;4927017;29;20024;-72
2021/06/08 07:25:37;;;;;;;12.35;4.28;;;17.20;99.90;;;;;;4926608;29;20024;-71
2021/06/08 07:28:07;;;;;;;13.55;4.05;;;17.40;99.90;;;;;;4927862;29;20028;-72
2021/06/08 07:30:36;;;;;;;6.78;4.28;;;17.30;99.90;;;;;;4928636;29;20043;-73
2021/06/08 07:33:28;;;;;;;12.00;5.50;;;17.50;99.90;;;;;;4928968;29;20060;-73
2021/06/08 07:35:58;;;;;;;7.43;4.05;;;17.60;99.90;;;;;;4914168;29;20107;-74
2021/06/08 07:38:57;;;;;;;9.65;4.72;;;17.70;99.90;;;;;;4926170;29;20083;-72
2021/06/08 07:41:56;;;;;;;7.13;3.85;;;17.80;99.90;;;;;;4924524;29;20401;-73
2021/06/08 07:44:54;;;;;;;9.23;3.90;;;17.90;99.90;;;;;;4920265;29;20099;-72
2021/06/08 07:47:22;;;;;;;5.10;3.30;;;18.10;99.90;;;;;;4925643;29;20048;-73
2021/06/08 07:49:50;;;;;;;15.10;4.22;;;18.20;99.90;;;;;;4910021;29;20037;-72
2021/06/08 07:52:18;;;;;;;6.47;4.13;;;18.20;99.90;;;;;;4920726;29;20104;-72
2021/06/08 07:54:44;;;;;;;7.40;3.65;;;18.30;99.90;;;;;;4928882;29;20464;-73
2021/06/08 07:57:11;;;;;;;6.97;3.35;;;18.30;99.90;;;;;;4942985;29;20043;-72
2021/06/08 07:59:37;;;;;;;5.70;3.30;;;18.40;99.90;;;;;;4933948;29;20032;-74
2021/06/08 08:02:03;;;;;;;5.75;3.00;;;18.60;99.90;;;;;;4908412;29;20125;-73
2021/06/08 08:04:37;;;;;;;5.47;2.90;;;18.70;99.90;;;;;;4909598;29;20056;-74
2021/06/08 08:07:03;;;;;;;4.38;2.90;;;18.80;99.90;;;;;;4912755;29;20389;-74
2021/06/08 08:09:30;;;;;;;6.22;3.47;;;18.80;99.90;;;;;;4922828;29;20096;-73
2021/06/08 08:11:57;;;;;;;5.05;2.63;;;18.90;99.90;;;;;;4931574;29;20128;-72
2021/06/08 08:14:24;;;;;;;5.93;2.97;;;18.90;99.90;;;;;;4917504;29;20028;-73
2021/06/08 08:16:51;;;;;;;5.90;3.15;;;18.90;99.90;;;;;;4928397;29;20095;-73
2021/06/08 08:19:21;;;;;;;5.00;2.50;;;19.00;99.90;;;;;;4923353;29;20044;-73
2021/06/08 08:21:47;;;;;;;4.28;2.78;;;19.10;99.90;;;;;;4909062;29;21185;-73
2021/06/08 08:24:12;;;;;;;6.63;3.13;;;19.20;99.90;;;;;;4909712;29;20032;-72
2021/06/08 08:26:41;;;;;;;5.32;2.38;;;19.40;99.90;;;;;;4909758;29;20036;-72
2021/06/08 08:29:07;;;;;;;5.82;2.85;;;19.40;99.90;;;;;;4909850;29;20062;-73
2021/06/08 08:31:33;;;;;;;3.33;2.20;;;19.60;99.90;;;;;;4909247;29;20057;-73
2021/06/08 08:34:00;;;;;;;4.68;2.92;;;19.60;99.90;;;;;;4923843;29;20052;-74
2021/06/08 08:36:29;;;;;;;9.18;2.70;;;19.70;99.90;;;;;;4909638;29;20032;-71
2021/06/08 08:38:55;;;;;;;8.05;3.70;;;19.70;99.90;;;;;;4909265;29;20028;-73
2021/06/08 08:41:21;;;;;;;7.70;2.85;;;19.80;99.90;;;;;;4909504;29;20536;-72
2021/06/08 08:43:49;;;;;;;5.85;2.92;;;19.90;99.90;;;;;;4919208;29;20036;-73
2021/06/08 08:46:16;;;;;;;5.30;2.70;;;19.90;99.90;;;;;;4927919;29;20043;-73
2021/06/08 08:48:43;;;;;;;3.72;2.35;;;20.10;99.90;;;;;;4928053;29;20034;-73
2021/06/08 08:51:14;;;;;;;5.78;2.40;;;20.10;99.90;;;;;;4927638;29;20032;-73
2021/06/08 08:53:40;;;;;;;6.65;3.10;;;20.20;99.90;;;;;;4927843;29;20370;-73
2021/06/08 08:56:06;;;;;;;7.32;3.20;;;20.30;99.90;;;;;;4942762;29;20038;-74
2021/06/08 08:58:33;;;;;;;5.20;2.38;;;20.40;99.90;;;;;;4927489;29;20068;-74
2021/06/08 09:01:00;;;;;;;4.88;2.88;;;20.50;99.90;;;;;;4927645;29;20052;-74
2021/06/08 09:03:26;;;;;;;3.53;2.08;;;20.70;99.90;;;;;;4917830;29;20033;-73
2021/06/08 09:05:58;;;;;;;6.07;2.80;;;20.80;99.90;;;;;;4913713;29;20038;-73
2021/06/08 09:08:24;;;;;;;3.92;2.00;;;20.90;99.90;;;;;;4909912;29;20060;-72
2021/06/08 09:10:50;;;;;;;3.90;2.60;;;21.00;99.90;;;;;;4942344;29;20060;-73
2021/06/08 09:13:17;;;;;;;3.63;2.55;;;21.00;99.90;;;;;;4927494;29;20035;-73
2021/06/08 09:15:43;;;;;;;3.63;2.47;;;21.00;99.90;;;;;;4942335;29;20139;-73
2021/06/08 09:18:10;;;;;;;3.80;2.42;;;20.90;99.90;;;;;;4927849;29;20027;-73
2021/06/08 09:20:37;;;;;;;5.47;3.08;;;20.90;99.90;;;;;;4927408;29;20024;-72
2021/06/08 09:23:07;;;;;;;5.38;2.58;;;20.90;99.90;;;;;;4923504;29;20028;-73
2021/06/08 09:25:47;;;;;;;4.90;2.88;;;20.90;99.90;;;;;;4912409;29;20036;-73
2021/06/08 09:28:22;;;;;;;10.77;2.80;;;21.10;99.90;;;;;;4908961;29;20044;-71
2021/06/08 09:30:57;;;;;;;6.88;3.10;;;21.10;99.90;;;;;;4908738;29;20029;-72
2021/06/08 09:33:32;;;;;;;6.25;3.17;;;21.10;99.90;;;;;;4909567;29;20056;-72
2021/06/08 09:36:03;;;;;;;6.38;3.13;;;21.10;99.90;;;;;;4912490;29;20036;-71
2021/06/08 09:38:43;;;;;;;5.95;3.25;;;21.10;99.90;;;;;;4912194;29;20028;-72
2021/06/08 09:41:21;;;;;;;6.43;2.90;;;21.00;99.90;;;;;;4926640;29;20029;-71
2021/06/08 09:43:52;;;;;;;5.93;2.90;;;21.00;99.90;;;;;;4912208;29;20469;-71
2021/06/08 09:46:19;;;;;;;8.40;3.85;;;21.00;99.90;;;;;;4912297;29;20135;-69
2021/06/08 09:48:57;;;;;;;5.53;3.25;;;20.90;99.90;;;;;;4911999;29;20036;-71
2021/06/08 09:51:25;;;;;;;6.40;3.47;;;20.80;99.90;;;;;;4912485;29;20488;-72
2021/06/08 09:53:51;;;;;;;5.90;3.03;;;20.80;99.90;;;;;;4911753;29;20508;-71
2021/06/08 09:56:19;;;;;;;5.05;3.03;;;20.80;99.90;;;;;;4911986;29;20036;-71
2021/06/08 09:58:51;;;;;;;6.82;2.83;;;20.90;99.90;;;;;;4911753;29;20037;-71
2021/06/08 10:01:21;;;;;;;6.82;3.63;;;21.00;99.90;;;;;;4911581;29;20053;-72
2021/06/08 10:03:55;;;;;;;6.95;3.25;;;21.30;99.90;;;;;;4912081;29;20104;-72
2021/06/08 10:06:22;;;;;;;5.10;2.85;;;21.50;99.90;;;;;;4911702;29;20039;-73
2021/06/08 10:09:22;;;;;;;3.80;2.80;;;21.80;99.90;;;;;;4926219;29;20036;-72
2021/06/08 10:12:03;;;;;;;3.42;2.38;;;22.10;99.90;;;;;;4911808;29;20033;-72
2021/06/08 10:14:38;;;;;;;5.07;2.90;;;22.40;99.90;;;;;;4911401;29;20039;-74
2021/06/08 10:17:09;;;;;;;5.63;2.83;;;22.60;99.90;;;;;;4926299;29;20067;-73
2021/06/08 10:19:35;;;;;;;3.90;2.67;;;22.70;99.90;;;;;;4911648;29;20044;-72
2021/06/08 10:22:02;;;;;;;3.75;2.00;;;22.90;99.90;;;;;;4911548;29;20039;-72
2021/06/08 10:24:28;;;;;;;4.93;2.38;;;23.10;99.90;;;;;;4911720;29;20056;-72
2021/06/08 10:26:57;;;;;;;4.65;2.13;;;23.30;99.90;;;;;;4926050;29;20088;-73
2021/06/08 10:29:25;;;;;;;3.85;2.15;;;23.40;99.90;;;;;;4910846;29;20028;-71
2021/06/08 10:31:52;;;;;;;3.35;2.10;;;23.60;99.90;;;;;;4911468;29;20028;-72
2021/06/08 10:34:18;;;;;;;3.97;2.38;;;23.70;99.90;;;;;;4918476;29;20048;-72
2021/06/08 10:36:45;;;;;;;3.63;2.15;;;23.80;99.90;;;;;;4915023;29;20048;-73
2021/06/08 10:39:13;;;;;;;5.00;2.65;;;24.00;99.90;;;;;;4913293;29;20036;-72
2021/06/08 10:41:42;;;;;;;2.72;2.15;;;24.10;99.90;;;;;;4922452;29;20032;-73
2021/06/08 10:44:21;;;;;;;3.38;2.20;;;24.20;99.90;;;;;;4929834;29;20032;-73
2021/06/08 10:47:01;;;;;;;2.97;1.95;;;24.30;99.90;;;;;;4929618;29;20053;-73
2021/06/08 10:49:38;;;;;;;4.60;2.10;;;24.50;99.90;;;;;;4911014;29;20032;-74
2021/06/08 10:52:15;;;;;;;4.35;1.63;;;24.70;99.90;;;;;;4911089;29;20037;-75
2021/06/08 10:54:48;;;;;;;5.07;2.42;;;24.80;99.90;;;;;;4914426;29;20059;-72
2021/06/08 10:57:16;;;;;;;2.72;1.75;;;25.00;99.90;;;;;;4916507;29;20058;-72
2021/06/08 10:59:51;;;;;;;7.95;2.38;;;25.00;99.90;;;;;;4910549;29;20378;-72
2021/06/08 11:02:47;;;;;;;5.13;1.67;;;25.20;99.90;;;;;;4925033;29;20036;-74
2021/06/08 11:05:16;;;;;;;4.03;1.83;;;25.40;99.90;;;;;;4906152;29;20060;-73
2021/06/08 11:07:45;;;;;;;3.78;1.80;;;25.60;99.90;;;;;;4928827;29;20035;-74
2021/06/08 11:10:26;;;;;;;3.83;1.77;;;25.70;99.90;;;;;;4929319;29;20072;-74
2021/06/08 11:13:07;;;;;;;3.55;1.98;;;25.80;99.90;;;;;;4929392;29;20036;-75
2021/06/08 11:15:33;;;;;;;3.40;1.85;;;25.90;99.90;;;;;;4929489;29;20024;-75
2021/06/08 11:18:00;;;;;;;2.60;1.50;;;25.80;99.90;;;;;;4943903;29;20493;-73
2021/06/08 11:20:27;;;;;;;7.15;1.92;;;26.00;99.90;;;;;;4929869;29;20095;-75
2021/06/08 11:22:55;;;;;;;7.32;2.53;;;26.20;99.90;;;;;;4929196;29;20028;-74
2021/06/08 11:25:31;;;;;;;5.45;1.90;;;26.50;99.90;;;;;;4929231;29;20028;-74
2021/06/08 11:27:58;;;;;;;2.08;1.50;;;26.80;99.90;;;;;;4929728;29;20096;-75
2021/06/08 11:30:33;;;;;;;3.00;1.73;;;27.00;99.90;;;;;;4929066;29;20508;-74
2021/06/08 11:33:02;;;;;;;1.50;1.40;;;27.30;99.90;;;;;;4929144;29;20060;-76
2021/06/08 11:35:36;;;;;;;4.30;2.13;;;27.60;99.90;;;;;;4943854;29;20062;-73
2021/06/08 11:38:01;;;;;;;1.85;1.45;;;27.70;99.90;;;;;;4929016;29;20035;-75
2021/06/08 11:40:39;;;;;;;2.58;1.92;;;27.90;99.90;;;;;;4929262;29;20029;-74
2021/06/08 11:43:10;;;;;;;3.03;1.67;;;28.10;99.90;;;;;;4929209;29;20042;-76
2021/06/08 11:45:41;;;;;;;3.72;2.20;;;28.10;99.90;;;;;;4928663;29;20028;-74
2021/06/08 11:48:30;;;;;;;3.50;1.77;;;28.20;99.90;;;;;;4928970;29;20056;-74
2021/06/08 11:50:57;;;;;;;3.08;2.10;;;28.40;99.90;;;;;;4929277;29;20510;-72
2021/06/08 11:53:22;;;;;;;3.80;2.05;;;28.70;99.90;;;;;;4943240;29;20074;-73
2021/06/08 11:56:09;;;;;;;2.03;1.50;;;28.70;99.90;;;;;;4928297;29;20036;-75
2021/06/08 11:58:37;;;;;;;4.45;1.67;;;28.50;99.90;;;;;;4928549;29;20111;-75
2021/06/08 12:01:05;;;;;;;6.85;2.45;;;28.20;99.90;;;;;;4928340;29;20056;-74
2021/06/08 12:03:32;;;;;;;2.92;1.88;;;27.90;99.90;;;;;;4928853;29;20024;-76
2021/06/08 12:05:59;;;;;;;3.13;1.67;;;27.50;99.90;;;;;;4928710;29;20028;-74
2021/06/08 12:08:27;;;;;;;4.35;1.88;;;27.10;99.90;;;;;;4943102;29;20039;-75
2021/06/08 12:10:53;;;;;;;7.03;1.80;;;26.80;99.90;;;;;;4928604;29;20545;-73
2021/06/08 12:13:30;;;;;;;5.18;1.95;;;26.50;99.90;;;;;;4928314;29;20040;-74
2021/06/08 12:15:56;;;;;;;2.70;1.75;;;26.30;99.90;;;;;;4928594;29;20040;-74
2021/06/08 12:18:32;;;;;;;4.28;2.65;;;26.10;99.90;;;;;;4942946;29;20069;-75
2021/06/08 12:20:58;;;;;;;3.03;1.83;;;26.00;99.90;;;;;;4928351;29;20056;-75
2021/06/08 12:23:35;;;;;;;4.18;1.90;;;25.80;99.90;;;;;;4928422;29;20032;-73
2021/06/08 12:26:10;;;;;;;3.83;2.13;;;25.70;99.90;;;;;;4928562;29;20059;-74
2021/06/08 12:28:37;;;;;;;2.65;1.50;;;25.50;99.90;;;;;;4928108;29;20087;-76
2021/06/08 12:31:20;;;;;;;2.42;1.73;;;25.40;99.90;;;;;;4942846;29;20115;-74
2021/06/08 12:33:47;;;;;;;2.22;1.58;;;25.40;99.90;;;;;;4927969;29;20059;-72
2021/06/08 12:36:13;;;;;;;3.70;2.40;;;25.30;99.90;;;;;;4928446;29;20028;-74
2021/06/08 12:38:47;;;;;;;4.10;2.50;;;25.20;99.90;;;;;;4928511;29;20079;-73
2021/06/08 12:41:13;;;;;;;5.03;2.22;;;25.50;99.90;;;;;;4927902;29;20052;-73
2021/06/08 12:43:48;;;;;;;2.33;1.67;;;26.20;99.90;;;;;;4928323;29;20044;-74
2021/06/08 12:46:33;;;;;;;3.35;1.95;;;26.80;99.90;;;;;;4928116;29;20060;-72
2021/06/08 12:49:10;;;;;;;6.03;2.72;;;27.60;99.90;;;;;;4928088;29;20441;-74
2021/06/08 12:51:45;;;;;;;2.20;1.70;;;28.10;99.90;;;;;;4928200;29;20477;-73
2021/06/08 12:54:38;;;;;;;3.47;1.88;;;28.60;99.90;;;;;;4927910;29;20044;-74
2021/06/08 12:57:25;;;;;;;2.60;1.67;;;29.00;99.90;;;;;;4928130;29;20020;-73